Amelia Ind Park, Puerto Rico
Current Conditions -  °F | °C
As of 4:56 PM on Saturday 22 Nov 2014 (Local Time) from TJSJ Reporting Station
Light Rain Light Rain  
Wind Chill: 75°   Ceiling: 7500
Heat Index: 75°   Visibility: 10mi
Dew Point: 75°   Wind: 3mph
Humidity: 100%   Direction: 130°SE
Pressure: 29.97"   Gusts: NA
Location:  18.3864°N, 66.1143°W
Report Text: TJSJ 222056Z 13003KT 10SM -RA FEW026 BKN075 BKN110 24/24 A2997 RMK AO2 TSE41 SLP147 P0008 60053 T02390239 56005 $
Loading
Personal Weather Stations






























Interactive Weather Map New forecast layout! Learn more

10-Day Weather Forecast

Advertisements
Track Severe Weather on mobile